createdAt,value
2023-01-01T00:02:43.639Z,15.15
2023-01-01T00:07:46.433Z,14.23
2023-01-01T00:12:50.656Z,13.68
2023-01-01T00:17:53.819Z,14.05
2023-01-01T00:22:56.983Z,13.32
2023-01-01T00:28:01.431Z,13.57
2023-01-01T00:33:04.248Z,20.10
2023-01-01T00:38:08.132Z,20.02
2023-01-01T00:43:12.360Z,17.85
2023-01-01T00:48:15.164Z,16.08
2023-01-01T00:53:18.106Z,15.82
2023-01-01T00:58:22.324Z,15.07
2023-01-01T01:03:31.265Z,15.80
2023-01-01T01:08:37.182Z,18.35
2023-01-01T01:13:42.005Z,16.33
2023-01-01T01:18:45.534Z,15.70
2023-01-01T01:23:48.745Z,15.43
2023-01-01T01:28:54.107Z,13.50
2023-01-01T01:33:57.502Z,13.95
2023-01-01T01:39:00.294Z,13.48
2023-01-01T01:44:27.384Z,14.18
2023-01-01T01:49:32.962Z,14.90
2023-01-01T01:54:36.035Z,13.80
2023-01-01T01:59:44.885Z,12.93
2023-01-01T02:04:48.554Z,13.15
2023-01-01T02:09:51.944Z,13.50
2023-01-01T02:14:56.655Z,13.73
2023-01-01T02:20:19.234Z,14.05
2023-01-01T02:25:29.850Z,13.65
2023-01-01T02:30:37.622Z,14.35
2023-01-01T02:35:43.889Z,14.02
2023-01-01T02:40:50.537Z,14.48
2023-01-01T02:45:55.390Z,16.23
2023-01-01T02:51:02.903Z,16.10
2023-01-01T02:56:12.622Z,16.45
2023-01-01T03:01:24.736Z,16.92
2023-01-01T03:06:34.552Z,17.88
2023-01-01T03:11:47.651Z,17.85
2023-01-01T03:16:56.152Z,17.85
2023-01-01T03:22:03.085Z,18.33
2023-01-01T03:27:11.966Z,18.73
2023-01-01T03:32:21.337Z,17.95
2023-01-01T03:37:27.770Z,18.38
2023-01-01T03:42:36.587Z,18.67
2023-01-01T03:47:40.832Z,19.10
2023-01-01T03:52:50.689Z,19.52
2023-01-01T03:58:01.824Z,18.55
2023-01-01T04:03:09.994Z,17.98
2023-01-01T04:08:15.343Z,18.65
2023-01-01T04:13:18.232Z,18.65
2023-01-01T04:18:22.430Z,17.70
2023-01-01T04:23:25.241Z,18.50
2023-01-01T04:28:28.027Z,18.95
2023-01-01T04:33:32.955Z,18.42
2023-01-01T04:38:36.974Z,19.05
2023-01-01T04:43:39.827Z,18.88
2023-01-01T04:48:44.155Z,18.17
2023-01-01T04:53:47.208Z,18.30
2023-01-01T04:58:50.240Z,17.60
2023-01-01T05:03:55.668Z,18.63
2023-01-01T05:08:59.577Z,18.40
2023-01-01T05:14:03.137Z,18.38
2023-01-01T05:19:08.818Z,18.45
2023-01-01T05:24:11.926Z,19.23
2023-01-01T05:29:16.873Z,16.67
2023-01-01T05:34:21.609Z,18.15
2023-01-01T05:39:24.479Z,16.88
2023-01-01T05:44:27.370Z,17.77
2023-01-01T05:49:31.553Z,17.00
2023-01-01T05:54:34.357Z,17.58
2023-01-01T05:59:37.148Z,17.40
2023-01-01T06:04:41.403Z,16.77
2023-01-01T06:09:44.249Z,16.50
2023-01-01T06:14:47.090Z,16.40
2023-01-01T06:19:51.370Z,16.27
2023-01-01T06:24:54.175Z,16.40
2023-01-01T06:29:57.724Z,15.75
2023-01-01T06:35:01.944Z,15.73
2023-01-01T06:40:06.044Z,16.60
2023-01-01T06:45:10.250Z,14.73
2023-01-01T06:50:14.486Z,14.73
2023-01-01T06:55:17.466Z,14.93
2023-01-01T07:00:20.507Z,14.55
2023-01-01T07:05:24.726Z,14.90
2023-01-01T07:10:27.578Z,13.48
2023-01-01T07:15:31.602Z,12.90
2023-01-01T07:20:35.812Z,14.45
2023-01-01T07:25:38.599Z,13.68
2023-01-01T07:30:41.572Z,13.40
2023-01-01T07:35:46.232Z,13.73
2023-01-01T07:40:49.016Z,13.80
2023-01-01T07:45:52.032Z,13.25
2023-01-01T07:50:56.348Z,12.82
2023-01-01T07:55:59.199Z,12.50
2023-01-01T08:01:02.050Z,12.10
2023-01-01T08:06:10.101Z,12.48
2023-01-01T08:11:12.905Z,11.73
2023-01-01T08:16:15.743Z,12.20
2023-01-01T08:21:20.023Z,10.90
2023-01-01T08:26:29.279Z,11.07
2023-01-01T08:31:32.218Z,10.60
2023-01-01T08:36:37.452Z,10.25
2023-01-01T08:41:40.402Z,9.85
2023-01-01T08:46:43.392Z,9.90
2023-01-01T08:51:47.576Z,10.02
2023-01-01T08:56:50.397Z,9.52
2023-01-01T09:01:53.316Z,10.30
2023-01-01T09:06:57.545Z,9.93
2023-01-01T09:12:06.372Z,9.20
2023-01-01T09:17:09.369Z,9.27
2023-01-01T09:22:13.922Z,9.25
2023-01-01T09:27:16.779Z,9.45
2023-01-01T09:32:19.617Z,8.85
2023-01-01T09:37:24.039Z,8.85
2023-01-01T09:42:36.737Z,8.88
2023-01-01T09:47:42.192Z,7.63
2023-01-01T09:52:52.184Z,8.32
2023-01-01T09:57:56.809Z,8.50
2023-01-01T10:03:12.253Z,8.25
2023-01-01T10:08:25.237Z,7.97
2023-01-01T10:13:33.691Z,8.50
2023-01-01T10:18:39.571Z,8.50
2023-01-01T10:23:47.540Z,7.53
2023-01-01T10:28:57.903Z,8.43
2023-01-01T10:34:04.416Z,8.57
2023-01-01T10:39:10.057Z,9.02
2023-01-01T10:44:13.600Z,8.85
2023-01-01T10:49:16.956Z,8.63
2023-01-01T10:54:34.264Z,8.18
2023-01-01T10:59:39.665Z,8.48
2023-01-01T11:04:42.717Z,8.40
2023-01-01T11:10:02.549Z,5.40
2023-01-01T11:15:07.893Z,4.78
2023-01-01T11:20:20.436Z,8.90
2023-01-01T11:25:26.814Z,8.90
2023-01-01T11:30:30.516Z,9.05
2023-01-01T11:35:38.715Z,7.55
2023-01-01T11:40:48.618Z,7.05
2023-01-01T11:45:53.635Z,7.45
2023-01-01T11:50:58.570Z,8.35
2023-01-01T11:56:09.852Z,7.63
2023-01-01T12:01:15.796Z,8.52
2023-01-01T12:06:24.545Z,7.68
2023-01-01T12:11:34.883Z,7.78
2023-01-01T12:16:50.112Z,8.05
2023-01-01T12:21:58.116Z,7.97
2023-01-01T12:27:19.183Z,8.15
2023-01-01T12:32:29.612Z,8.20
2023-01-01T12:37:47.016Z,7.80
2023-01-01T12:43:02.434Z,7.50
2023-01-01T12:48:17.689Z,7.38
2023-01-01T12:53:30.075Z,7.82
2023-01-01T12:58:37.817Z,7.60
2023-01-01T13:03:50.876Z,7.57
2023-01-01T13:08:59.963Z,7.57
2023-01-01T13:14:04.239Z,6.68
2023-01-01T13:19:07.388Z,6.85
2023-01-01T13:24:21.216Z,6.97
2023-01-01T13:29:47.307Z,6.97
2023-01-01T13:35:15.985Z,7.25
2023-01-01T13:40:53.241Z,7.22
2023-01-01T13:46:15.515Z,6.97
2023-01-01T13:52:08.167Z,7.43
2023-01-01T13:57:36.740Z,7.60
2023-01-01T14:02:44.897Z,7.22
2023-01-01T14:07:52.409Z,7.10
2023-01-01T14:12:57.102Z,6.93
2023-01-01T14:18:03.585Z,7.15
2023-01-01T14:23:10.368Z,6.68
2023-01-01T14:28:17.544Z,6.85
2023-01-01T14:33:25.996Z,6.28
2023-01-01T14:38:30.779Z,6.05
2023-01-01T14:43:33.657Z,6.53
2023-01-01T14:48:37.920Z,6.18
2023-01-01T14:53:43.532Z,6.35
2023-01-01T14:58:46.435Z,6.50
2023-01-01T15:04:02.305Z,5.85
2023-01-01T15:09:05.170Z,5.95
2023-01-01T15:14:07.966Z,6.50
2023-01-01T15:19:24.501Z,5.47
2023-01-01T15:24:29.182Z,6.50
2023-01-01T15:29:34.478Z,5.68
2023-01-01T15:34:43.523Z,6.03
2023-01-01T15:39:48.853Z,5.65
2023-01-01T15:44:51.756Z,6.10
2023-01-01T15:50:10.407Z,5.63
2023-01-01T15:55:16.475Z,6.70
2023-01-01T16:00:22.369Z,5.93
2023-01-01T16:05:28.360Z,5.53
2023-01-01T16:10:32.021Z,6.00
2023-01-01T16:15:35.547Z,5.28
2023-01-01T16:20:40.331Z,5.65
2023-01-01T16:25:43.187Z,4.95
2023-01-01T16:30:46.931Z,6.07
2023-01-01T16:35:51.121Z,7.05
2023-01-01T16:40:53.929Z,6.78
2023-01-01T16:45:56.770Z,6.15
2023-01-01T16:51:00.997Z,5.40
2023-01-01T16:56:03.830Z,6.00
2023-01-01T17:01:07.253Z,5.20
2023-01-01T17:06:11.837Z,5.43
2023-01-01T17:11:16.759Z,5.00
2023-01-01T17:16:27.033Z,5.18
2023-01-01T17:21:32.488Z,5.15
2023-01-01T17:26:35.610Z,6.13
2023-01-01T17:31:38.658Z,5.13
2023-01-01T17:36:43.884Z,5.35
2023-01-01T17:41:46.893Z,5.88
2023-01-01T17:46:49.840Z,4.88
2023-01-01T17:51:54.172Z,5.18
2023-01-01T17:56:59.288Z,4.35
2023-01-01T18:02:02.486Z,4.68
2023-01-01T18:07:06.853Z,4.30
2023-01-01T18:12:10.019Z,4.20
2023-01-01T18:17:12.915Z,4.53
2023-01-01T18:22:17.160Z,4.38
2023-01-01T18:27:19.994Z,5.03
2023-01-01T18:32:22.846Z,4.60
2023-01-01T18:37:27.034Z,5.70
2023-01-01T18:42:40.509Z,4.75
2023-01-01T18:47:45.712Z,4.00
2023-01-01T18:52:49.933Z,4.00
2023-01-01T18:57:59.167Z,4.22
2023-01-01T19:03:03.684Z,3.83
2023-01-01T19:08:15.638Z,4.15
2023-01-01T19:13:21.414Z,3.80
2023-01-01T19:18:25.617Z,4.97
2023-01-01T19:23:31.558Z,3.58
2023-01-01T19:28:36.275Z,7.63
2023-01-01T19:33:42.791Z,4.43
2023-01-01T19:38:50.080Z,3.38
2023-01-01T19:43:53.234Z,4.00
2023-01-01T19:48:56.447Z,3.88
2023-01-01T19:54:00.806Z,3.45
2023-01-01T19:59:03.625Z,3.67
2023-01-01T20:04:06.582Z,3.22
2023-01-01T20:09:10.904Z,3.80
2023-01-01T20:14:13.763Z,3.08
2023-01-01T20:19:16.685Z,3.65
2023-01-01T20:24:21.016Z,3.05
2023-01-01T20:29:24.309Z,3.50
2023-01-01T20:34:27.693Z,3.20
2023-01-01T20:39:32.164Z,3.15
2023-01-01T20:44:35.652Z,3.72
2023-01-01T20:49:38.588Z,3.28
2023-01-01T20:54:43.002Z,2.90
2023-01-01T20:59:45.919Z,2.90
2023-01-01T21:04:49.061Z,4.07
2023-01-01T21:09:53.305Z,3.05
2023-01-01T21:14:56.852Z,3.40
2023-01-01T21:20:00.056Z,2.85
2023-01-01T21:25:49.301Z,4.82
2023-01-01T21:30:40.626Z,3.60
2023-01-01T21:35:44.482Z,3.08
2023-01-01T21:40:52.528Z,3.53
2023-01-01T21:45:57.581Z,3.47
2023-01-01T21:51:01.639Z,2.95
2023-01-01T21:56:27.029Z,3.60
2023-01-01T22:01:37.769Z,3.00
2023-01-01T22:06:43.097Z,3.20
2023-01-01T22:11:48.550Z,3.30
2023-01-01T22:16:55.558Z,3.00
2023-01-01T22:21:58.753Z,2.63
2023-01-01T22:27:23.345Z,2.75
2023-01-01T22:32:29.108Z,2.70
2023-01-01T22:37:36.057Z,2.88
2023-01-01T22:42:40.409Z,3.20
2023-01-01T22:47:44.944Z,2.75
2023-01-01T22:52:48.078Z,3.45
2023-01-01T22:57:52.400Z,3.28
2023-01-01T23:02:55.394Z,3.25
2023-01-01T23:07:59.100Z,2.80
2023-01-01T23:13:23.604Z,3.05
2023-01-01T23:18:26.465Z,3.17
2023-01-01T23:23:31.012Z,3.03
2023-01-01T23:28:37.727Z,2.83
2023-01-01T23:33:41.329Z,2.97
2023-01-01T23:38:44.226Z,2.90
2023-01-01T23:43:48.411Z,2.60
2023-01-01T23:48:51.584Z,2.97
2023-01-01T23:53:54.454Z,2.83
2023-01-01T23:58:58.707Z,2.50
